Time;durP1;ratioP1;P1;durP2;ratioP2;P2;SDS_P1;SDS_P2;PMS_P1;PMS_P2;Temp;Humidity;BMP_temperature;BMP_pressure;BME280_temperature;BME280_humidity;BME280_pressure;Samples;Min_cycle;Max_cycle;Signal;HPM_P1;HPM_P2
2022/08/29 00:00:13;;;;;;;2.22;1.85;;;22.00;92.10;;;;;;5115134;28;20043;-64
2022/08/29 00:02:39;;;;;;;2.63;2.10;;;22.20;90.80;;;;;;5113505;28;20028;-64
2022/08/29 00:05:06;;;;;;;2.20;2.00;;;22.20;90.90;;;;;;5115110;28;20031;-64
2022/08/29 00:07:32;;;;;;;2.22;2.05;;;22.10;91.30;;;;;;5114154;28;20711;-64
2022/08/29 00:09:58;;;;;;;2.60;2.20;;;22.10;91.40;;;;;;5114303;28;20111;-64
2022/08/29 00:12:23;;;;;;;2.88;1.88;;;22.10;91.20;;;;;;5114044;28;20055;-65
2022/08/29 00:14:49;;;;;;;2.80;2.10;;;22.00;91.70;;;;;;5114036;28;20115;-64
2022/08/29 00:17:15;;;;;;;2.10;1.90;;;21.90;92.10;;;;;;5114043;28;20034;-64
2022/08/29 00:19:40;;;;;;;2.45;1.90;;;22.00;92.10;;;;;;5115418;28;20068;-64
2022/08/29 00:22:06;;;;;;;4.50;1.92;;;21.90;92.10;;;;;;5114379;28;20106;-64
2022/08/29 00:24:32;;;;;;;2.55;2.00;;;21.80;92.50;;;;;;5114461;28;20062;-64
2022/08/29 00:26:59;;;;;;;2.78;2.10;;;21.70;92.90;;;;;;5114223;28;20031;-64
2022/08/29 00:29:25;;;;;;;2.38;2.17;;;21.70;92.80;;;;;;5114806;28;20027;-63
2022/08/29 00:31:51;;;;;;;2.42;2.22;;;21.70;93.00;;;;;;5113964;28;20023;-64
2022/08/29 00:34:17;;;;;;;3.10;2.40;;;21.60;93.30;;;;;;5113861;28;20031;-65
2022/08/29 00:36:42;;;;;;;2.45;2.25;;;21.60;92.90;;;;;;5114599;28;20023;-65
2022/08/29 00:39:08;;;;;;;3.47;2.35;;;21.80;93.00;;;;;;5113942;28;20075;-64
2022/08/29 00:41:34;;;;;;;2.30;2.10;;;22.10;92.90;;;;;;5114118;28;20495;-64
2022/08/29 00:43:59;;;;;;;3.50;2.40;;;22.30;92.60;;;;;;5114110;28;20027;-66
2022/08/29 00:46:28;;;;;;;3.67;2.58;;;21.90;92.60;;;;;;5113763;28;20044;-65
2022/08/29 00:49:01;;;;;;;3.72;2.40;;;21.60;93.30;;;;;;5113799;28;20027;-66
2022/08/29 00:51:27;;;;;;;2.65;2.42;;;21.40;93.70;;;;;;5114044;28;20109;-65
2022/08/29 00:53:59;;;;;;;2.50;2.30;;;21.50;93.50;;;;;;5114075;28;20121;-66
2022/08/29 00:56:26;;;;;;;3.05;2.25;;;21.50;93.80;;;;;;5113397;28;20030;-66
2022/08/29 00:58:59;;;;;;;2.30;2.10;;;21.40;93.60;;;;;;5114060;28;20102;-65
2022/08/29 01:01:25;;;;;;;3.70;2.33;;;21.50;93.60;;;;;;5113505;28;20032;-65
2022/08/29 01:03:52;;;;;;;2.25;2.05;;;21.50;93.70;;;;;;5113499;28;20104;-65
2022/08/29 01:06:20;;;;;;;4.40;2.20;;;21.40;94.30;;;;;;5113672;28;20038;-65
2022/08/29 01:08:46;;;;;;;2.95;2.20;;;21.40;94.80;;;;;;5112771;28;20039;-63
2022/08/29 01:14:03;;;;;;;2.83;2.25;;;21.90;94.00;;;;;;5067368;28;20559;-65
2022/08/29 01:16:30;;;;;;;2.65;2.30;;;21.60;94.40;;;;;;5068698;28;20037;-65
2022/08/29 01:19:02;;;;;;;2.78;2.50;;;21.60;94.40;;;;;;5067941;28;20044;-65
2022/08/29 01:21:49;;;;;;;2.70;2.47;;;21.60;93.90;;;;;;5054965;28;20060;-65
2022/08/29 01:24:14;;;;;;;2.53;2.17;;;21.70;94.00;;;;;;5054391;28;20065;-65
2022/08/29 01:26:45;;;;;;;2.72;2.00;;;21.50;94.20;;;;;;5065738;28;20063;-66
2022/08/29 01:29:12;;;;;;;2.45;2.20;;;21.60;94.60;;;;;;5050348;28;20616;-65
2022/08/29 01:31:45;;;;;;;3.80;2.15;;;21.70;94.40;;;;;;5050042;28;20045;-65
2022/08/29 01:34:14;;;;;;;2.30;2.10;;;22.00;93.60;;;;;;5051633;28;20033;-66
2022/08/29 01:36:49;;;;;;;2.15;1.95;;;22.30;93.70;;;;;;5050114;28;20376;-64
2022/08/29 01:39:16;;;;;;;3.85;2.20;;;22.80;93.00;;;;;;5057448;28;20028;-65
2022/08/29 01:41:43;;;;;;;2.67;2.00;;;23.00;92.70;;;;;;5064887;28;20083;-65
2022/08/29 01:44:17;;;;;;;2.20;2.00;;;22.90;91.40;;;;;;5050052;28;20050;-67
2022/08/29 01:46:45;;;;;;;2.13;1.92;;;23.00;91.40;;;;;;5067567;28;20094;-67
2022/08/29 01:49:11;;;;;;;2.28;1.92;;;22.90;90.70;;;;;;5055981;28;20043;-66
2022/08/29 01:51:39;;;;;;;2.00;1.80;;;23.00;90.80;;;;;;5090757;28;20043;-67
2022/08/29 01:54:06;;;;;;;2.13;1.90;;;22.90;90.70;;;;;;5111684;28;20015;-67
2022/08/29 01:56:35;;;;;;;2.17;1.83;;;22.80;90.50;;;;;;5112181;28;20058;-67
2022/08/29 01:59:04;;;;;;;1.88;1.77;;;22.80;90.60;;;;;;5112625;28;20111;-66
2022/08/29 02:01:38;;;;;;;3.33;1.90;;;23.00;90.10;;;;;;5112718;28;20490;-67
2022/08/29 02:04:05;;;;;;;2.10;1.90;;;22.60;90.50;;;;;;5111967;28;20042;-67
2022/08/29 02:06:31;;;;;;;2.40;1.90;;;22.50;91.90;;;;;;5112635;28;20775;-66
2022/08/29 02:08:57;;;;;;;2.20;1.92;;;22.50;92.20;;;;;;5111851;28;20055;-67
2022/08/29 02:11:23;;;;;;;3.45;1.83;;;22.60;92.50;;;;;;5112081;28;20023;-66
2022/08/29 02:13:54;;;;;;;2.53;1.90;;;22.50;91.90;;;;;;5110376;28;20126;-67
2022/08/29 02:16:20;;;;;;;2.20;2.00;;;22.40;91.00;;;;;;5111598;28;20036;-66
2022/08/29 02:18:46;;;;;;;2.13;1.90;;;22.50;91.30;;;;;;5111051;28;20042;-67
2022/08/29 02:21:15;;;;;;;2.10;1.90;;;22.90;90.90;;;;;;5111647;28;20493;-68
2022/08/29 02:23:41;;;;;;;2.88;1.92;;;22.50;90.60;;;;;;5112518;28;20020;-67
2022/08/29 02:26:07;;;;;;;2.33;2.03;;;22.30;90.90;;;;;;5111986;28;20035;-67
2022/08/29 02:28:36;;;;;;;3.80;2.10;;;22.40;90.80;;;;;;5111923;28;20050;-66
2022/08/29 02:31:04;;;;;;;2.85;2.00;;;22.30;91.20;;;;;;5112049;28;20031;-65
2022/08/29 02:33:30;;;;;;;2.22;2.05;;;22.20;91.80;;;;;;5111738;28;20039;-66
2022/08/29 02:35:57;;;;;;;3.22;1.80;;;22.00;92.20;;;;;;5112225;28;20520;-66
2022/08/29 02:38:23;;;;;;;3.53;1.85;;;22.30;92.90;;;;;;5111796;28;20043;-66
2022/08/29 02:40:50;;;;;;;2.10;1.90;;;22.70;92.10;;;;;;5112229;28;20110;-66
2022/08/29 02:43:18;;;;;;;1.98;1.83;;;22.80;91.90;;;;;;5110981;28;20016;-66
2022/08/29 02:45:45;;;;;;;1.98;1.77;;;22.30;92.10;;;;;;5111447;28;20051;-65
2022/08/29 02:48:11;;;;;;;3.33;2.20;;;22.10;92.60;;;;;;5111208;28;20039;-65
2022/08/29 02:50:48;;;;;;;2.30;1.85;;;22.00;92.30;;;;;;5112428;28;20353;-65
2022/08/29 02:53:17;;;;;;;2.30;2.10;;;22.20;92.30;;;;;;5111688;28;20036;-66
2022/08/29 02:55:42;;;;;;;2.25;1.80;;;22.30;91.90;;;;;;5112280;28;20080;-67
2022/08/29 02:58:08;;;;;;;2.58;1.90;;;22.30;92.00;;;;;;5111191;28;20024;-64
2022/08/29 03:00:35;;;;;;;2.70;1.90;;;22.00;91.90;;;;;;5111750;28;20047;-64
2022/08/29 03:03:01;;;;;;;2.33;1.85;;;22.00;92.20;;;;;;5111764;28;20023;-64
2022/08/29 03:05:31;;;;;;;2.15;1.95;;;22.20;92.00;;;;;;5111734;28;20031;-64
2022/08/29 03:07:57;;;;;;;3.08;1.95;;;22.30;91.10;;;;;;5111269;28;20059;-64
2022/08/29 03:10:24;;;;;;;1.88;1.77;;;22.30;91.90;;;;;;5111611;28;20016;-64
2022/08/29 03:12:50;;;;;;;2.47;2.28;;;22.10;91.20;;;;;;5110350;28;20043;-64
2022/08/29 03:15:17;;;;;;;2.25;1.90;;;22.00;91.70;;;;;;5110525;28;20368;-65
2022/08/29 03:17:43;;;;;;;2.42;1.98;;;22.00;90.80;;;;;;5111170;28;20023;-65
2022/08/29 03:20:11;;;;;;;3.22;2.05;;;22.30;90.40;;;;;;5115264;28;20511;-65
2022/08/29 03:22:37;;;;;;;2.72;1.90;;;22.40;90.70;;;;;;5115125;28;20023;-65
2022/08/29 03:25:03;;;;;;;3.70;1.90;;;22.30;90.70;;;;;;5115968;28;20484;-65
2022/08/29 03:27:30;;;;;;;2.22;2.00;;;22.10;91.20;;;;;;5114854;28;20099;-65
2022/08/29 03:29:56;;;;;;;1.98;1.88;;;21.80;92.10;;;;;;5116316;28;20012;-65
2022/08/29 03:32:23;;;;;;;2.25;2.00;;;22.20;92.50;;;;;;5115814;28;20098;-65
2022/08/29 03:34:49;;;;;;;2.08;1.80;;;22.20;92.40;;;;;;5115899;28;20023;-65
2022/08/29 03:37:15;;;;;;;3.72;1.85;;;22.10;92.30;;;;;;5114699;28;20028;-65
2022/08/29 03:39:40;;;;;;;2.53;2.22;;;21.60;92.70;;;;;;5115963;28;20046;-65
2022/08/29 03:42:07;;;;;;;2.03;1.83;;;21.20;93.30;;;;;;5115570;28;20023;-64
2022/08/29 03:44:35;;;;;;;2.22;2.00;;;21.30;93.50;;;;;;5115419;28;20023;-65
2022/08/29 03:47:01;;;;;;;2.88;1.98;;;21.70;92.60;;;;;;5115407;28;20051;-65
2022/08/29 03:49:26;;;;;;;2.55;2.05;;;22.00;92.20;;;;;;5114468;28;20399;-65
2022/08/29 03:51:52;;;;;;;2.97;1.90;;;22.20;91.20;;;;;;5115601;28;20395;-65
2022/08/29 03:54:18;;;;;;;2.83;2.00;;;22.30;92.20;;;;;;5115189;28;20019;-65
2022/08/29 03:56:45;;;;;;;2.10;1.90;;;22.40;92.00;;;;;;5115951;28;20028;-66
2022/08/29 03:59:11;;;;;;;2.20;2.00;;;22.00;90.90;;;;;;5115593;28;20031;-66
2022/08/29 04:01:37;;;;;;;2.22;2.00;;;21.80;91.30;;;;;;5115619;28;20047;-64
2022/08/29 04:04:03;;;;;;;5.53;2.08;;;21.70;91.70;;;;;;5115399;28;20507;-65
2022/08/29 04:06:29;;;;;;;2.20;1.95;;;22.00;92.20;;;;;;5115293;28;20055;-63
2022/08/29 04:08:55;;;;;;;2.60;1.80;;;21.90;91.70;;;;;;5113832;28;20143;-65
2022/08/29 04:11:23;;;;;;;2.55;2.03;;;22.00;92.30;;;;;;5115267;28;20031;-65
2022/08/29 04:13:50;;;;;;;2.53;2.00;;;22.10;90.70;;;;;;5114691;28;20116;-65
2022/08/29 04:16:19;;;;;;;4.43;2.00;;;22.10;91.60;;;;;;5114987;28;20023;-66
2022/08/29 04:18:45;;;;;;;2.35;1.90;;;21.90;91.70;;;;;;5115201;28;20023;-67
2022/08/29 04:21:11;;;;;;;1.95;1.75;;;22.10;91.60;;;;;;5115087;28;20464;-67
2022/08/29 04:23:38;;;;;;;2.30;1.88;;;22.10;90.80;;;;;;5114109;28;20030;-65
2022/08/29 04:26:04;;;;;;;2.22;1.98;;;22.00;90.20;;;;;;5114842;28;20036;-66
2022/08/29 04:28:30;;;;;;;2.53;1.90;;;22.00;90.10;;;;;;5115219;28;20369;-65
2022/08/29 04:30:56;;;;;;;3.40;2.10;;;22.00;90.10;;;;;;5114069;28;20031;-65
2022/08/29 04:33:24;;;;;;;2.15;1.95;;;22.00;90.10;;;;;;5114860;28;20023;-64
2022/08/29 04:35:51;;;;;;;2.58;1.90;;;22.00;90.00;;;;;;5114849;28;20081;-64
2022/08/29 04:38:17;;;;;;;2.42;2.10;;;22.10;89.10;;;;;;5113284;28;20030;-64
2022/08/29 04:40:43;;;;;;;2.97;1.83;;;22.10;89.20;;;;;;5113918;28;20023;-65
2022/08/29 04:43:09;;;;;;;2.20;1.80;;;22.10;89.00;;;;;;5113841;28;20019;-64
2022/08/29 04:45:35;;;;;;;2.30;2.10;;;22.10;90.10;;;;;;5114226;28;20137;-64
2022/08/29 04:48:02;;;;;;;2.42;2.08;;;22.40;88.30;;;;;;5113945;28;20123;-65
2022/08/29 04:50:29;;;;;;;2.15;1.80;;;22.30;88.00;;;;;;5114096;28;20388;-64
2022/08/29 04:52:55;;;;;;;2.20;1.98;;;22.20;88.40;;;;;;5113309;28;20084;-65
2022/08/29 04:55:22;;;;;;;1.92;1.83;;;22.30;88.40;;;;;;5114336;28;20024;-65
2022/08/29 04:57:50;;;;;;;2.20;2.00;;;22.30;89.40;;;;;;5113762;28;20106;-64
2022/08/29 05:00:19;;;;;;;2.55;2.00;;;22.30;88.20;;;;;;5113619;28;20019;-64
2022/08/29 05:02:45;;;;;;;2.35;1.83;;;22.40;87.60;;;;;;5113791;28;20027;-64
2022/08/29 05:05:13;;;;;;;2.55;2.00;;;22.30;87.50;;;;;;5112288;28;20032;-67
2022/08/29 05:07:39;;;;;;;2.15;1.95;;;22.50;87.20;;;;;;5113323;28;20082;-65
2022/08/29 05:10:14;;;;;;;3.95;1.98;;;22.40;87.20;;;;;;5113755;28;20095;-65
2022/08/29 05:12:40;;;;;;;2.10;1.90;;;22.50;87.10;;;;;;5112461;28;20035;-65
2022/08/29 05:15:07;;;;;;;2.17;1.90;;;22.30;87.60;;;;;;5112731;28;20032;-66
2022/08/29 05:17:33;;;;;;;2.08;1.90;;;22.40;87.60;;;;;;5112700;28;20032;-66
2022/08/29 05:19:59;;;;;;;3.67;1.80;;;22.30;88.20;;;;;;5112915;28;20055;-66
2022/08/29 05:22:25;;;;;;;3.05;2.08;;;22.20;88.70;;;;;;5111721;28;20036;-66
2022/08/29 05:24:52;;;;;;;2.47;1.95;;;22.30;88.00;;;;;;5112765;28;20079;-66
2022/08/29 05:27:20;;;;;;;2.95;2.00;;;22.40;87.70;;;;;;5113583;28;20039;-65
2022/08/29 05:29:49;;;;;;;2.55;1.80;;;22.30;88.10;;;;;;5113629;28;20704;-65
2022/08/29 05:32:17;;;;;;;3.75;1.92;;;22.30;88.20;;;;;;5113736;28;20092;-64
2022/08/29 05:34:44;;;;;;;3.28;2.03;;;22.20;89.00;;;;;;5113416;28;20023;-66
2022/08/29 05:37:13;;;;;;;4.32;1.90;;;22.10;89.50;;;;;;5112346;28;20024;-64
2022/08/29 05:39:40;;;;;;;3.10;2.13;;;22.10;90.90;;;;;;5113524;28;20411;-65
2022/08/29 05:42:07;;;;;;;4.78;2.20;;;22.00;90.00;;;;;;5113200;28;20020;-67
2022/08/29 05:44:34;;;;;;;10.02;2.25;;;22.10;91.00;;;;;;5113480;28;20028;-69
2022/08/29 05:47:02;;;;;;;7.30;2.00;;;22.00;91.20;;;;;;5112433;28;20481;-66
2022/08/29 05:49:27;;;;;;;3.60;2.20;;;21.90;90.80;;;;;;5113020;28;20496;-67
2022/08/29 05:51:54;;;;;;;3.25;2.05;;;21.90;91.00;;;;;;5111616;28;20031;-66
2022/08/29 05:54:21;;;;;;;4.40;2.20;;;22.00;90.90;;;;;;5113068;28;20041;-66
2022/08/29 05:56:47;;;;;;;3.70;2.10;;;22.10;91.00;;;;;;5113022;28;20084;-66
2022/08/29 05:59:12;;;;;;;2.45;1.95;;;21.90;91.70;;;;;;5112356;28;20074;-66
2022/08/29 06:01:39;;;;;;;4.75;2.30;;;22.00;91.40;;;;;;5112116;28;20035;-66
2022/08/29 06:04:05;;;;;;;2.88;2.05;;;22.30;91.30;;;;;;5112003;28;20019;-66
2022/08/29 06:06:31;;;;;;;3.08;2.03;;;22.40;90.70;;;;;;5102802;28;20117;-66
2022/08/29 06:08:58;;;;;;;3.33;2.10;;;22.70;91.50;;;;;;5092654;28;20029;-66
2022/08/29 06:11:27;;;;;;;4.85;2.05;;;22.70;91.00;;;;;;5092851;28;20024;-66
2022/08/29 06:13:53;;;;;;;2.97;2.30;;;23.00;91.00;;;;;;5092643;28;20103;-66
2022/08/29 06:16:21;;;;;;;4.45;2.35;;;23.40;90.50;;;;;;5092565;28;20469;-66
2022/08/29 06:18:47;;;;;;;3.45;1.83;;;24.50;86.60;;;;;;5110262;28;20050;-66
2022/08/29 06:21:13;;;;;;;2.97;1.90;;;25.70;85.90;;;;;;5111899;28;20038;-66
2022/08/29 06:23:40;;;;;;;3.72;2.10;;;26.20;85.40;;;;;;5112887;28;20423;-66
2022/08/29 06:26:07;;;;;;;6.55;2.30;;;25.70;85.80;;;;;;5112185;28;20035;-66
2022/08/29 06:28:34;;;;;;;3.15;2.03;;;25.40;87.00;;;;;;5112385;28;20110;-65
2022/08/29 06:31:09;;;;;;;3.13;2.30;;;25.80;86.80;;;;;;5112107;28;20030;-66
2022/08/29 06:33:35;;;;;;;4.13;2.20;;;25.70;85.50;;;;;;5112277;28;20028;-66
2022/08/29 06:36:02;;;;;;;5.85;2.60;;;26.80;84.20;;;;;;5110457;28;20139;-66
2022/08/29 06:38:28;;;;;;;3.95;2.40;;;28.30;80.50;;;;;;5112394;28;20328;-67
2022/08/29 06:40:54;;;;;;;2.67;2.47;;;27.80;78.10;;;;;;5111883;28;20395;-76
2022/08/29 06:43:19;;;;;;;3.40;2.30;;;27.10;80.50;;;;;;5111828;28;20034;-70
2022/08/29 06:45:45;;;;;;;4.03;2.45;;;26.60;81.30;;;;;;5110441;28;20130;-71
2022/08/29 06:48:11;;;;;;;2.97;2.72;;;25.80;83.70;;;;;;5112070;28;20036;-72
2022/08/29 06:50:38;;;;;;;7.55;2.60;;;25.50;84.90;;;;;;5110494;28;20110;-71
2022/08/29 06:53:05;;;;;;;2.63;2.42;;;25.10;86.40;;;;;;5111731;28;20499;-71
2022/08/29 06:55:30;;;;;;;2.63;2.42;;;24.40;87.70;;;;;;5111254;28;20026;-70
2022/08/29 06:57:56;;;;;;;3.33;2.45;;;24.50;87.70;;;;;;5103274;28;20027;-70
2022/08/29 07:00:22;;;;;;;4.47;2.60;;;24.60;88.00;;;;;;5102983;28;20067;-70
2022/08/29 07:02:49;;;;;;;3.45;2.40;;;24.30;89.10;;;;;;5106748;28;20032;-70
2022/08/29 07:05:14;;;;;;;3.40;2.70;;;24.20;88.80;;;;;;5104787;28;20034;-71
2022/08/29 07:07:41;;;;;;;7.32;2.63;;;24.20;89.50;;;;;;5110039;28;20035;-70
2022/08/29 07:10:07;;;;;;;6.80;3.00;;;24.50;90.40;;;;;;5099823;28;20027;-70
2022/08/29 07:12:33;;;;;;;4.55;2.53;;;24.80;89.90;;;;;;5111093;28;20548;-70
2022/08/29 07:15:00;;;;;;;3.58;2.42;;;24.90;90.00;;;;;;5107654;28;20039;-69
2022/08/29 07:17:28;;;;;;;5.40;2.60;;;24.60;90.10;;;;;;5110120;28;20024;-70
2022/08/29 07:19:54;;;;;;;5.95;3.00;;;24.60;91.30;;;;;;5105484;28;20048;-70
2022/08/29 07:22:20;;;;;;;10.02;2.70;;;24.30;91.70;;;;;;5091424;28;20020;-70
2022/08/29 07:24:45;;;;;;;6.70;2.85;;;24.40;91.70;;;;;;5091659;28;20411;-69
2022/08/29 07:27:13;;;;;;;8.68;2.90;;;24.40;91.90;;;;;;5091829;28;20119;-70
2022/08/29 07:29:39;;;;;;;7.65;3.08;;;24.30;92.20;;;;;;5091877;28;20416;-69
2022/08/29 07:32:05;;;;;;;4.00;2.53;;;24.10;93.10;;;;;;5090923;28;20429;-69
2022/08/29 07:34:31;;;;;;;5.70;2.90;;;24.30;92.00;;;;;;5091386;28;20031;-71
2022/08/29 07:36:57;;;;;;;6.88;2.90;;;24.40;92.30;;;;;;5090509;28;20039;-70
2022/08/29 07:39:23;;;;;;;4.50;2.95;;;24.50;92.70;;;;;;5099659;28;20023;-70
2022/08/29 07:41:49;;;;;;;3.60;2.67;;;24.30;92.90;;;;;;5111497;28;20082;-70
2022/08/29 07:44:16;;;;;;;7.82;3.00;;;24.30;92.90;;;;;;5111941;28;20027;-74
2022/08/29 07:46:43;;;;;;;9.02;3.20;;;24.50;92.40;;;;;;5111069;28;20047;-71
2022/08/29 07:49:11;;;;;;;4.20;3.28;;;24.60;92.40;;;;;;5111682;28;20028;-69
2022/08/29 07:51:37;;;;;;;5.68;3.15;;;24.70;92.10;;;;;;5111863;28;20028;-70
2022/08/29 07:54:04;;;;;;;6.78;3.28;;;24.60;92.70;;;;;;5112163;28;20031;-70
2022/08/29 07:56:32;;;;;;;10.57;5.07;;;24.50;92.40;;;;;;5111968;28;20396;-71
2022/08/29 07:58:58;;;;;;;5.20;3.20;;;24.80;92.00;;;;;;5111746;28;20022;-71
2022/08/29 08:01:25;;;;;;;5.53;3.55;;;24.80;92.40;;;;;;5111382;28;20375;-71
2022/08/29 08:03:51;;;;;;;4.43;3.00;;;24.80;91.60;;;;;;5111787;28;20024;-71
2022/08/29 08:06:22;;;;;;;3.63;2.90;;;25.00;91.70;;;;;;5113779;28;20051;-70
2022/08/29 08:08:48;;;;;;;6.97;3.10;;;25.30;91.90;;;;;;5115626;28;20024;-69
2022/08/29 08:11:14;;;;;;;6.07;3.17;;;25.20;91.30;;;;;;5115494;28;20027;-70
2022/08/29 08:13:40;;;;;;;6.35;3.25;;;25.50;91.50;;;;;;5114246;28;20434;-70
2022/08/29 08:16:11;;;;;;;4.60;3.05;;;25.50;91.60;;;;;;5115348;28;20088;-71
2022/08/29 08:18:38;;;;;;;3.92;3.10;;;25.50;91.40;;;;;;5115366;28;20058;-71
2022/08/29 08:21:04;;;;;;;6.90;3.33;;;25.50;91.10;;;;;;5115222;28;20560;-71
2022/08/29 08:23:30;;;;;;;5.00;3.10;;;25.60;91.20;;;;;;5114086;28;20049;-69
2022/08/29 08:25:57;;;;;;;4.80;2.83;;;25.50;91.00;;;;;;5115348;28;20019;-71
2022/08/29 08:28:22;;;;;;;9.38;3.30;;;25.60;90.90;;;;;;5115163;28;20042;-71
2022/08/29 08:30:48;;;;;;;5.97;3.67;;;25.90;90.90;;;;;;5114612;27;20032;-71
2022/08/29 08:33:14;;;;;;;7.18;3.55;;;25.90;90.60;;;;;;5115142;28;20045;-71
2022/08/29 08:35:40;;;;;;;7.75;3.15;;;25.90;90.70;;;;;;5115291;28;20012;-72
2022/08/29 08:38:09;;;;;;;5.13;3.50;;;26.00;90.50;;;;;;5115090;28;20027;-72
2022/08/29 08:40:44;;;;;;;6.50;3.33;;;26.20;90.50;;;;;;5114945;28;20024;-72
2022/08/29 08:43:15;;;;;;;6.15;3.20;;;26.20;90.10;;;;;;5115223;28;20077;-72
2022/08/29 08:45:42;;;;;;;3.40;3.10;;;26.50;89.60;;;;;;5114272;28;20036;-70
2022/08/29 08:48:19;;;;;;;6.03;3.10;;;26.30;90.20;;;;;;5114721;28;20035;-71
2022/08/29 08:51:02;;;;;;;5.68;3.30;;;26.70;90.00;;;;;;5114929;28;20539;-70
2022/08/29 08:53:53;;;;;;;5.20;3.38;;;26.50;90.00;;;;;;5114719;28;20038;-69
2022/08/29 08:56:24;;;;;;;6.50;3.67;;;27.20;89.40;;;;;;5114558;28;20024;-69
2022/08/29 08:59:16;;;;;;;5.07;3.38;;;27.50;88.40;;;;;;5114195;28;20051;-71
2022/08/29 09:01:55;;;;;;;3.72;3.40;;;28.20;88.20;;;;;;5114831;28;20034;-71
2022/08/29 09:04:31;;;;;;;3.67;3.20;;;29.10;86.20;;;;;;5112074;28;20016;-70
2022/08/29 09:07:25;;;;;;;4.07;3.40;;;28.70;86.00;;;;;;5114125;28;20032;-68
2022/08/29 09:09:56;;;;;;;;;;;28.50;86.70;;;;;;5103525;28;20137;-70
2022/08/29 09:12:31;;;;;;;5.72;3.40;;;28.70;85.20;;;;;;5106712;28;20014;-70
2022/08/29 09:15:07;;;;;;;4.05;3.20;;;29.00;85.50;;;;;;5113535;28;20064;-70
2022/08/29 09:17:41;;;;;;;8.25;3.55;;;29.00;84.80;;;;;;5113043;28;20031;-70
2022/08/29 09:20:08;;;;;;;;;;;29.30;85.60;;;;;;5114525;28;20099;-70
2022/08/29 09:22:35;;;;;;;3.80;3.42;;;29.60;83.70;;;;;;5113109;28;19957;-70
2022/08/29 09:25:07;;;;;;;7.22;3.30;;;29.80;83.30;;;;;;5114004;28;20361;-69
2022/08/29 09:27:35;;;;;;;4.45;3.30;;;29.60;84.60;;;;;;5113847;28;20028;-70
2022/08/29 09:30:07;;;;;;;4.90;3.83;;;30.30;83.30;;;;;;5113612;28;20023;-69
2022/08/29 09:32:49;;;;;;;4.10;3.42;;;31.00;83.00;;;;;;5114009;28;20016;-69
2022/08/29 09:35:23;;;;;;;5.15;3.58;;;30.50;82.80;;;;;;5113952;28;20023;-69
2022/08/29 09:38:17;;;;;;;4.35;3.72;;;30.40;83.60;;;;;;5113899;28;20031;-69
2022/08/29 09:40:59;;;;;;;4.32;3.40;;;31.20;81.90;;;;;;5113811;28;20020;-70
2022/08/29 09:43:47;;;;;;;3.75;3.30;;;30.40;80.90;;;;;;5113376;28;20023;-69
2022/08/29 09:46:24;;;;;;;4.75;3.40;;;30.10;81.90;;;;;;5113159;28;20116;-69
2022/08/29 09:49:02;;;;;;;4.90;3.28;;;30.30;82.00;;;;;;5113651;28;20096;-69
2022/08/29 09:51:29;;;;;;;5.32;3.38;;;30.70;81.60;;;;;;5113512;28;20023;-69
2022/08/29 09:54:12;;;;;;;5.25;3.67;;;30.40;82.30;;;;;;5113919;28;20054;-69
2022/08/29 09:56:50;;;;;;;4.40;3.67;;;30.30;82.80;;;;;;5113527;28;20124;-70
2022/08/29 09:59:24;;;;;;;3.72;3.40;;;30.30;82.00;;;;;;5113394;28;20039;-70
2022/08/29 10:02:13;;;;;;;6.90;3.50;;;31.00;81.10;;;;;;5113287;28;20539;-69
2022/08/29 10:04:41;;;;;;;4.10;3.35;;;31.30;81.50;;;;;;5113249;28;20024;-69
2022/08/29 10:07:21;;;;;;;5.45;3.20;;;31.20;80.20;;;;;;5113171;28;20047;-69
2022/08/29 10:10:18;;;;;;;6.63;3.60;;;31.50;81.00;;;;;;5113174;28;20035;-69
2022/08/29 10:13:03;;;;;;;3.75;3.25;;;30.90;81.30;;;;;;5112523;28;20043;-69
2022/08/29 10:15:43;;;;;;;6.55;3.20;;;31.70;80.80;;;;;;5112930;28;20027;-69
2022/08/29 10:18:22;;;;;;;4.55;2.70;;;30.70;80.90;;;;;;5112928;28;20027;-69
2022/08/29 10:21:12;;;;;;;4.80;3.00;;;30.80;80.80;;;;;;5113385;28;20051;-69
2022/08/29 10:24:15;;;;;;;4.72;3.22;;;30.90;81.00;;;;;;5112904;28;20084;-69
2022/08/29 10:26:55;;;;;;;3.67;3.25;;;30.50;80.40;;;;;;5112448;28;20035;-69
2022/08/29 10:29:39;;;;;;;3.47;3.15;;;30.80;81.10;;;;;;5112144;28;20106;-69
2022/08/29 10:32:43;;;;;;;3.40;3.10;;;30.80;81.90;;;;;;5112932;27;20061;-69
2022/08/29 10:35:26;;;;;;;4.32;3.40;;;30.70;80.90;;;;;;5106785;28;20035;-69
2022/08/29 10:38:12;;;;;;;4.90;3.10;;;30.90;81.00;;;;;;5112753;28;20020;-69
2022/08/29 10:40:46;;;;;;;5.25;3.40;;;30.90;80.90;;;;;;5112058;28;20043;-69
2022/08/29 10:43:38;;;;;;;3.58;3.22;;;30.60;81.10;;;;;;5112753;28;20545;-69
2022/08/29 10:46:41;;;;;;;4.93;3.30;;;30.90;81.10;;;;;;5112482;28;20047;-68
2022/08/29 10:49:37;;;;;;;4.33;3.13;;;31.40;81.20;;;;;;5112524;28;20089;-69
2022/08/29 10:52:23;;;;;;;3.90;3.22;;;31.30;81.20;;;;;;5112486;28;20048;-69
2022/08/29 10:55:27;;;;;;;5.85;3.28;;;31.40;80.50;;;;;;5112055;28;20023;-69
2022/08/29 10:58:25;;;;;;;5.50;3.28;;;31.90;79.80;;;;;;5112053;28;20096;-69
2022/08/29 11:00:54;;;;;;;5.82;3.50;;;31.70;79.00;;;;;;5069582;28;20170;-69
2022/08/29 11:03:34;;;;;;;4.50;3.10;;;32.50;78.60;;;;;;5069653;28;20521;-69
2022/08/29 11:06:08;;;;;;;4.97;3.45;;;32.70;78.30;;;;;;5069430;28;20029;-69
2022/08/29 11:09:01;;;;;;;3.55;3.08;;;32.40;78.90;;;;;;5070170;28;20056;-69
2022/08/29 11:11:29;;;;;;;6.65;3.13;;;31.50;78.70;;;;;;5029584;28;20067;-69
2022/08/29 11:14:01;;;;;;;3.47;2.75;;;31.50;80.20;;;;;;5013119;28;20401;-69
2022/08/29 11:16:26;;;;;;;4.60;2.90;;;31.40;78.40;;;;;;5029625;28;20044;-69
2022/08/29 11:19:15;;;;;;;3.33;2.95;;;31.40;79.20;;;;;;5029635;28;20049;-69
2022/08/29 11:22:10;;;;;;;3.72;3.20;;;31.60;80.00;;;;;;5029648;28;20061;-69
2022/08/29 11:24:39;;;;;;;3.55;3.25;;;31.30;80.00;;;;;;5024063;28;20064;-69
2022/08/29 11:27:41;;;;;;;7.90;3.20;;;31.00;81.00;;;;;;5029779;28;20110;-69
2022/08/29 11:30:14;;;;;;;4.18;3.20;;;31.30;80.80;;;;;;5029589;28;20384;-69
2022/08/29 11:33:06;;;;;;;4.00;2.87;;;31.50;80.70;;;;;;5029661;28;20536;-69
2022/08/29 11:36:05;;;;;;;4.70;4.17;;;31.20;80.00;;;;;;5029271;28;20522;-69
2022/08/29 11:39:05;;;;;;;5.05;3.75;;;31.10;81.20;;;;;;5062032;28;20524;-69
2022/08/29 11:41:54;;;;;;;5.93;3.50;;;31.00;82.00;;;;;;5073215;28;20497;-69
2022/08/29 11:44:36;;;;;;;3.42;3.13;;;30.90;81.70;;;;;;5073307;28;20064;-69
2022/08/29 11:47:40;;;;;;;3.60;3.30;;;31.00;81.50;;;;;;5072719;28;20056;-68
2022/08/29 11:50:15;;;;;;;3.53;3.13;;;30.70;81.80;;;;;;5115940;28;20076;-69
2022/08/29 11:53:12;;;;;;;4.50;3.38;;;30.70;82.40;;;;;;5115918;28;20027;-69
2022/08/29 11:55:39;;;;;;;3.45;3.15;;;30.80;80.70;;;;;;5115757;28;20480;-69
2022/08/29 11:58:24;;;;;;;5.13;3.20;;;30.80;82.90;;;;;;5115794;28;20026;-69
2022/08/29 12:00:55;;;;;;;4.82;3.25;;;30.60;84.80;;;;;;5115705;28;20036;-69
2022/08/29 12:03:33;;;;;;;4.88;3.17;;;30.50;87.10;;;;;;5116081;28;20020;-69
2022/08/29 12:06:18;;;;;;;4.22;2.83;;;30.40;84.90;;;;;;5115612;28;20102;-69
2022/08/29 12:09:07;;;;;;;8.38;3.88;;;30.10;84.20;;;;;;5115278;28;20085;-69
2022/08/29 12:11:57;;;;;;;4.32;3.05;;;30.10;84.90;;;;;;5115618;28;20027;-69
2022/08/29 12:14:42;;;;;;;5.90;3.10;;;30.00;85.50;;;;;;5115481;28;20475;-69
2022/08/29 12:17:28;;;;;;;5.95;3.13;;;30.00;86.30;;;;;;5115451;28;20022;-69
2022/08/29 12:19:59;;;;;;;7.57;3.28;;;29.80;86.60;;;;;;5115461;28;20111;-69
2022/08/29 12:22:47;;;;;;;4.70;3.03;;;29.80;87.00;;;;;;5115466;28;20122;-69
2022/08/29 12:25:22;;;;;;;6.35;3.33;;;29.60;84.80;;;;;;5115470;28;20019;-69
2022/08/29 12:28:16;;;;;;;7.55;3.90;;;29.60;85.10;;;;;;5115099;28;20071;-69
2022/08/29 12:30:52;;;;;;;7.97;3.90;;;29.30;84.70;;;;;;5115699;28;20024;-69
2022/08/29 12:33:55;;;;;;;4.57;3.75;;;29.20;84.90;;;;;;5115465;28;20042;-69
2022/08/29 12:36:46;;;;;;;7.13;4.10;;;29.00;84.80;;;;;;5114676;28;20028;-69
2022/08/29 12:39:37;;;;;;;11.30;4.30;;;29.10;84.90;;;;;;5113146;28;20390;-69
2022/08/29 12:42:49;;;;;;;6.38;4.35;;;29.00;84.90;;;;;;5115501;28;20083;-69
2022/08/29 12:45:22;;;;;;;5.72;4.18;;;29.00;85.50;;;;;;5071885;28;20063;-69
2022/08/29 12:47:56;;;;;;;;;;;29.00;85.50;;;;;;5072449;28;20068;-69
2022/08/29 12:50:29;;;;;;;5.53;4.20;;;28.90;85.30;;;;;;5071864;28;19909;-70
2022/08/29 12:53:04;;;;;;;6.30;3.80;;;28.90;85.30;;;;;;5071652;28;20036;-69
2022/08/29 12:55:42;;;;;;;4.47;3.80;;;28.80;85.00;;;;;;5071925;28;20043;-69
2022/08/29 12:58:11;;;;;;;5.97;3.67;;;28.90;85.30;;;;;;5071858;28;20021;-69
2022/08/29 13:00:38;;;;;;;6.10;3.83;;;28.70;85.80;;;;;;5071826;28;20501;-69
2022/08/29 13:03:08;;;;;;;6.43;4.28;;;28.60;86.60;;;;;;5072182;28;20457;-69
2022/08/29 13:05:36;;;;;;;5.85;3.80;;;28.40;87.90;;;;;;5071326;28;20048;-69
2022/08/29 13:08:08;;;;;;;8.65;3.90;;;28.20;88.80;;;;;;5071796;28;20044;-69
2022/08/29 13:10:40;;;;;;;5.97;3.90;;;28.00;88.90;;;;;;5071583;28;20127;-69
2022/08/29 13:13:17;;;;;;;7.93;3.92;;;27.90;90.40;;;;;;5071399;28;20045;-69